sensor_id;sensor_type;location;lat;lon;timestamp;P1;durP1;ratioP1;P2;durP2;ratioP2
4698;SDS011;33708;49.466;11.176;2023-08-17T00:01:39;8.17;;;6.40;;
4698;SDS011;33708;49.466;11.176;2023-08-17T00:04:05;10.17;;;5.97;;
4698;SDS011;33708;49.466;11.176;2023-08-17T00:06:31;12.70;;;6.23;;
4698;SDS011;33708;49.466;11.176;2023-08-17T00:08:56;12.23;;;5.70;;
4698;SDS011;33708;49.466;11.176;2023-08-17T00:11:22;8.00;;;5.50;;
4698;SDS011;33708;49.466;11.176;2023-08-17T00:13:48;21.80;;;6.57;;
4698;SDS011;33708;49.466;11.176;2023-08-17T00:16:13;9.93;;;5.53;;
4698;SDS011;33708;49.466;11.176;2023-08-17T00:18:39;10.37;;;5.57;;
4698;SDS011;33708;49.466;11.176;2023-08-17T00:21:04;11.80;;;5.70;;
4698;SDS011;33708;49.466;11.176;2023-08-17T00:23:30;15.03;;;5.97;;
4698;SDS011;33708;49.466;11.176;2023-08-17T00:25:56;8.93;;;5.97;;
4698;SDS011;33708;49.466;11.176;2023-08-17T00:28:22;8.80;;;5.43;;
4698;SDS011;33708;49.466;11.176;2023-08-17T00:30:47;8.13;;;5.50;;
4698;SDS011;33708;49.466;11.176;2023-08-17T00:33:13;9.50;;;6.27;;
4698;SDS011;33708;49.466;11.176;2023-08-17T00:35:38;9.70;;;6.03;;
4698;SDS011;33708;49.466;11.176;2023-08-17T00:38:04;13.20;;;6.50;;
4698;SDS011;33708;49.466;11.176;2023-08-17T00:40:30;16.00;;;6.10;;
4698;SDS011;33708;49.466;11.176;2023-08-17T00:42:55;8.80;;;6.07;;
4698;SDS011;33708;49.466;11.176;2023-08-17T00:45:21;13.33;;;5.23;;
4698;SDS011;33708;49.466;11.176;2023-08-17T00:47:48;11.60;;;6.33;;
4698;SDS011;33708;49.466;11.176;2023-08-17T00:50:14;12.40;;;5.80;;
4698;SDS011;33708;49.466;11.176;2023-08-17T00:52:40;9.90;;;5.73;;
4698;SDS011;33708;49.466;11.176;2023-08-17T00:55:07;17.43;;;5.80;;
4698;SDS011;33708;49.466;11.176;2023-08-17T00:57:34;9.60;;;5.80;;
4698;SDS011;33708;49.466;11.176;2023-08-17T01:00:01;13.20;;;6.10;;
4698;SDS011;33708;49.466;11.176;2023-08-17T01:02:27;8.53;;;5.73;;
4698;SDS011;33708;49.466;11.176;2023-08-17T01:04:53;11.00;;;5.70;;
4698;SDS011;33708;49.466;11.176;2023-08-17T01:07:19;13.23;;;5.40;;
4698;SDS011;33708;49.466;11.176;2023-08-17T01:09:44;6.90;;;5.93;;
4698;SDS011;33708;49.466;11.176;2023-08-17T01:12:16;14.70;;;6.20;;
4698;SDS011;33708;49.466;11.176;2023-08-17T01:15:11;11.83;;;6.10;;
4698;SDS011;33708;49.466;11.176;2023-08-17T01:20:23;12.10;;;7.03;;
4698;SDS011;33708;49.466;11.176;2023-08-17T01:22:50;10.17;;;6.23;;
4698;SDS011;33708;49.466;11.176;2023-08-17T01:25:21;9.33;;;5.70;;
4698;SDS011;33708;49.466;11.176;2023-08-17T01:27:48;9.67;;;6.50;;
4698;SDS011;33708;49.466;11.176;2023-08-17T01:30:14;7.13;;;5.67;;
4698;SDS011;33708;49.466;11.176;2023-08-17T01:32:47;11.90;;;7.20;;
4698;SDS011;33708;49.466;11.176;2023-08-17T01:37:52;9.73;;;6.07;;
4698;SDS011;33708;49.466;11.176;2023-08-17T01:40:20;7.23;;;5.77;;
4698;SDS011;33708;49.466;11.176;2023-08-17T01:42:46;9.67;;;6.70;;
4698;SDS011;33708;49.466;11.176;2023-08-17T01:45:14;8.93;;;5.43;;
4698;SDS011;33708;49.466;11.176;2023-08-17T01:47:40;11.53;;;6.20;;
4698;SDS011;33708;49.466;11.176;2023-08-17T01:50:06;10.40;;;6.77;;
4698;SDS011;33708;49.466;11.176;2023-08-17T01:52:31;9.37;;;6.50;;
4698;SDS011;33708;49.466;11.176;2023-08-17T01:54:57;12.37;;;6.13;;
4698;SDS011;33708;49.466;11.176;2023-08-17T01:57:22;7.17;;;5.97;;
4698;SDS011;33708;49.466;11.176;2023-08-17T01:59:48;10.37;;;6.27;;
4698;SDS011;33708;49.466;11.176;2023-08-17T02:02:14;8.73;;;6.60;;
4698;SDS011;33708;49.466;11.176;2023-08-17T02:04:39;8.43;;;5.90;;
4698;SDS011;33708;49.466;11.176;2023-08-17T02:07:05;11.70;;;6.97;;
4698;SDS011;33708;49.466;11.176;2023-08-17T02:09:31;9.63;;;6.13;;
4698;SDS011;33708;49.466;11.176;2023-08-17T02:11:56;16.90;;;6.33;;
4698;SDS011;33708;49.466;11.176;2023-08-17T02:14:22;17.03;;;6.40;;
4698;SDS011;33708;49.466;11.176;2023-08-17T02:16:48;7.77;;;5.33;;
4698;SDS011;33708;49.466;11.176;2023-08-17T02:19:14;13.97;;;6.00;;
4698;SDS011;33708;49.466;11.176;2023-08-17T02:21:39;11.43;;;7.20;;
4698;SDS011;33708;49.466;11.176;2023-08-17T02:24:05;17.93;;;6.00;;
4698;SDS011;33708;49.466;11.176;2023-08-17T02:26:31;13.17;;;6.50;;
4698;SDS011;33708;49.466;11.176;2023-08-17T02:28:56;10.40;;;6.47;;
4698;SDS011;33708;49.466;11.176;2023-08-17T02:31:22;12.40;;;6.70;;
4698;SDS011;33708;49.466;11.176;2023-08-17T02:33:48;10.17;;;6.97;;
4698;SDS011;33708;49.466;11.176;2023-08-17T02:36:13;12.40;;;7.40;;
4698;SDS011;33708;49.466;11.176;2023-08-17T02:38:39;11.20;;;7.97;;
4698;SDS011;33708;49.466;11.176;2023-08-17T02:41:05;9.77;;;7.00;;
4698;SDS011;33708;49.466;11.176;2023-08-17T02:43:30;14.53;;;7.70;;
4698;SDS011;33708;49.466;11.176;2023-08-17T02:45:56;12.07;;;7.23;;
4698;SDS011;33708;49.466;11.176;2023-08-17T02:48:21;9.40;;;6.70;;
4698;SDS011;33708;49.466;11.176;2023-08-17T02:50:47;8.97;;;6.90;;
4698;SDS011;33708;49.466;11.176;2023-08-17T02:53:13;9.60;;;7.17;;
4698;SDS011;33708;49.466;11.176;2023-08-17T02:55:38;11.03;;;8.40;;
4698;SDS011;33708;49.466;11.176;2023-08-17T02:58:04;14.90;;;7.83;;
4698;SDS011;33708;49.466;11.176;2023-08-17T03:00:29;9.33;;;6.70;;
4698;SDS011;33708;49.466;11.176;2023-08-17T03:02:55;10.50;;;6.70;;
4698;SDS011;33708;49.466;11.176;2023-08-17T03:05:21;14.77;;;7.63;;
4698;SDS011;33708;49.466;11.176;2023-08-17T03:07:46;7.90;;;6.57;;
4698;SDS011;33708;49.466;11.176;2023-08-17T03:10:12;7.90;;;6.50;;
4698;SDS011;33708;49.466;11.176;2023-08-17T03:12:38;18.00;;;7.30;;
4698;SDS011;33708;49.466;11.176;2023-08-17T03:15:04;13.23;;;7.40;;
4698;SDS011;33708;49.466;11.176;2023-08-17T03:17:31;12.90;;;8.07;;
4698;SDS011;33708;49.466;11.176;2023-08-17T03:19:56;14.20;;;7.90;;
4698;SDS011;33708;49.466;11.176;2023-08-17T03:22:25;11.93;;;7.40;;
4698;SDS011;33708;49.466;11.176;2023-08-17T03:24:50;12.57;;;7.90;;
4698;SDS011;33708;49.466;11.176;2023-08-17T03:27:16;9.00;;;7.20;;
4698;SDS011;33708;49.466;11.176;2023-08-17T03:29:41;10.27;;;7.83;;
4698;SDS011;33708;49.466;11.176;2023-08-17T03:32:07;8.17;;;6.80;;
4698;SDS011;33708;49.466;11.176;2023-08-17T03:34:33;14.63;;;7.27;;
4698;SDS011;33708;49.466;11.176;2023-08-17T03:36:58;9.17;;;6.60;;
4698;SDS011;33708;49.466;11.176;2023-08-17T03:39:24;10.63;;;6.97;;
4698;SDS011;33708;49.466;11.176;2023-08-17T03:41:49;11.40;;;6.10;;
4698;SDS011;33708;49.466;11.176;2023-08-17T03:44:15;10.20;;;5.83;;
4698;SDS011;33708;49.466;11.176;2023-08-17T03:46:41;10.67;;;7.37;;
4698;SDS011;33708;49.466;11.176;2023-08-17T03:49:06;8.30;;;6.70;;
4698;SDS011;33708;49.466;11.176;2023-08-17T03:51:32;12.17;;;6.77;;
4698;SDS011;33708;49.466;11.176;2023-08-17T03:53:58;12.90;;;6.63;;
4698;SDS011;33708;49.466;11.176;2023-08-17T03:56:24;11.43;;;7.30;;
4698;SDS011;33708;49.466;11.176;2023-08-17T03:58:50;11.20;;;6.57;;
4698;SDS011;33708;49.466;11.176;2023-08-17T04:01:15;12.20;;;6.70;;
4698;SDS011;33708;49.466;11.176;2023-08-17T04:03:41;10.40;;;6.63;;
4698;SDS011;33708;49.466;11.176;2023-08-17T04:06:07;14.03;;;6.70;;
4698;SDS011;33708;49.466;11.176;2023-08-17T04:08:35;9.17;;;6.87;;
4698;SDS011;33708;49.466;11.176;2023-08-17T04:11:04;9.90;;;7.13;;
4698;SDS011;33708;49.466;11.176;2023-08-17T04:13:30;13.17;;;7.00;;
4698;SDS011;33708;49.466;11.176;2023-08-17T04:15:56;12.00;;;7.10;;
4698;SDS011;33708;49.466;11.176;2023-08-17T04:18:22;11.40;;;6.73;;
4698;SDS011;33708;49.466;11.176;2023-08-17T04:20:48;10.23;;;7.17;;
4698;SDS011;33708;49.466;11.176;2023-08-17T04:23:13;11.30;;;7.00;;
4698;SDS011;33708;49.466;11.176;2023-08-17T04:25:39;13.10;;;7.97;;
4698;SDS011;33708;49.466;11.176;2023-08-17T04:28:05;12.73;;;7.60;;
4698;SDS011;33708;49.466;11.176;2023-08-17T04:30:31;10.83;;;6.70;;
4698;SDS011;33708;49.466;11.176;2023-08-17T04:32:56;9.13;;;7.80;;
4698;SDS011;33708;49.466;11.176;2023-08-17T04:35:22;10.53;;;7.10;;
4698;SDS011;33708;49.466;11.176;2023-08-17T04:37:48;9.73;;;6.87;;
4698;SDS011;33708;49.466;11.176;2023-08-17T04:40:14;15.23;;;7.50;;
4698;SDS011;33708;49.466;11.176;2023-08-17T04:42:39;11.50;;;7.17;;
4698;SDS011;33708;49.466;11.176;2023-08-17T04:45:05;13.13;;;7.50;;
4698;SDS011;33708;49.466;11.176;2023-08-17T04:47:31;13.57;;;6.60;;
4698;SDS011;33708;49.466;11.176;2023-08-17T04:49:57;14.73;;;7.13;;
4698;SDS011;33708;49.466;11.176;2023-08-17T04:52:23;11.50;;;7.00;;
4698;SDS011;33708;49.466;11.176;2023-08-17T04:54:48;16.00;;;6.87;;
4698;SDS011;33708;49.466;11.176;2023-08-17T04:57:14;8.10;;;6.23;;
4698;SDS011;33708;49.466;11.176;2023-08-17T04:59:40;11.27;;;6.50;;
4698;SDS011;33708;49.466;11.176;2023-08-17T05:02:05;9.63;;;7.00;;
4698;SDS011;33708;49.466;11.176;2023-08-17T05:04:31;10.57;;;7.23;;
4698;SDS011;33708;49.466;11.176;2023-08-17T05:06:57;10.73;;;6.40;;
4698;SDS011;33708;49.466;11.176;2023-08-17T05:09:22;13.20;;;6.80;;
4698;SDS011;33708;49.466;11.176;2023-08-17T05:11:48;9.97;;;7.50;;
4698;SDS011;33708;49.466;11.176;2023-08-17T05:14:14;10.47;;;7.60;;
4698;SDS011;33708;49.466;11.176;2023-08-17T05:16:39;14.33;;;7.50;;
4698;SDS011;33708;49.466;11.176;2023-08-17T05:19:05;8.60;;;7.00;;
4698;SDS011;33708;49.466;11.176;2023-08-17T05:21:30;8.50;;;6.77;;
4698;SDS011;33708;49.466;11.176;2023-08-17T05:23:56;12.40;;;6.50;;
4698;SDS011;33708;49.466;11.176;2023-08-17T05:26:22;9.73;;;7.07;;
4698;SDS011;33708;49.466;11.176;2023-08-17T05:28:47;8.60;;;5.60;;
4698;SDS011;33708;49.466;11.176;2023-08-17T05:31:13;9.33;;;6.43;;
4698;SDS011;33708;49.466;11.176;2023-08-17T05:33:39;8.90;;;6.00;;
4698;SDS011;33708;49.466;11.176;2023-08-17T05:36:06;10.73;;;5.70;;
4698;SDS011;33708;49.466;11.176;2023-08-17T05:38:32;15.43;;;7.00;;
4698;SDS011;33708;49.466;11.176;2023-08-17T05:40:58;9.03;;;5.83;;
4698;SDS011;33708;49.466;11.176;2023-08-17T05:43:24;15.57;;;6.10;;
4698;SDS011;33708;49.466;11.176;2023-08-17T05:45:50;9.17;;;5.40;;
4698;SDS011;33708;49.466;11.176;2023-08-17T05:48:19;7.20;;;5.60;;
4698;SDS011;33708;49.466;11.176;2023-08-17T05:50:48;8.20;;;5.70;;
4698;SDS011;33708;49.466;11.176;2023-08-17T05:53:14;7.70;;;5.73;;
4698;SDS011;33708;49.466;11.176;2023-08-17T05:55:39;8.97;;;6.00;;
4698;SDS011;33708;49.466;11.176;2023-08-17T05:58:05;17.97;;;6.20;;
4698;SDS011;33708;49.466;11.176;2023-08-17T06:00:30;11.80;;;5.57;;
4698;SDS011;33708;49.466;11.176;2023-08-17T06:02:56;9.17;;;5.83;;
4698;SDS011;33708;49.466;11.176;2023-08-17T06:05:26;10.10;;;5.70;;
4698;SDS011;33708;49.466;11.176;2023-08-17T06:07:53;8.47;;;5.93;;
4698;SDS011;33708;49.466;11.176;2023-08-17T06:10:19;10.90;;;5.67;;
4698;SDS011;33708;49.466;11.176;2023-08-17T06:12:45;11.07;;;6.20;;
4698;SDS011;33708;49.466;11.176;2023-08-17T06:15:11;8.73;;;5.47;;
4698;SDS011;33708;49.466;11.176;2023-08-17T06:17:38;7.77;;;5.27;;
4698;SDS011;33708;49.466;11.176;2023-08-17T06:20:04;8.50;;;5.40;;
4698;SDS011;33708;49.466;11.176;2023-08-17T06:22:30;8.77;;;5.50;;
4698;SDS011;33708;49.466;11.176;2023-08-17T06:24:56;13.77;;;5.10;;
4698;SDS011;33708;49.466;11.176;2023-08-17T06:27:21;7.37;;;5.80;;
4698;SDS011;33708;49.466;11.176;2023-08-17T06:29:47;10.27;;;5.60;;
4698;SDS011;33708;49.466;11.176;2023-08-17T06:32:12;7.60;;;5.10;;
4698;SDS011;33708;49.466;11.176;2023-08-17T06:34:38;10.10;;;5.00;;
4698;SDS011;33708;49.466;11.176;2023-08-17T06:37:04;8.93;;;5.60;;
4698;SDS011;33708;49.466;11.176;2023-08-17T06:39:30;9.43;;;5.43;;
4698;SDS011;33708;49.466;11.176;2023-08-17T06:41:55;8.80;;;5.20;;
4698;SDS011;33708;49.466;11.176;2023-08-17T06:44:21;9.67;;;4.80;;
4698;SDS011;33708;49.466;11.176;2023-08-17T06:46:47;13.30;;;5.20;;
4698;SDS011;33708;49.466;11.176;2023-08-17T06:49:12;6.17;;;5.23;;
4698;SDS011;33708;49.466;11.176;2023-08-17T06:51:38;11.60;;;5.60;;
4698;SDS011;33708;49.466;11.176;2023-08-17T06:54:04;12.63;;;5.00;;
4698;SDS011;33708;49.466;11.176;2023-08-17T06:56:32;8.60;;;5.07;;
4698;SDS011;33708;49.466;11.176;2023-08-17T06:58:58;5.53;;;4.43;;
4698;SDS011;33708;49.466;11.176;2023-08-17T07:01:24;6.70;;;4.63;;
4698;SDS011;33708;49.466;11.176;2023-08-17T07:03:49;9.23;;;4.73;;
4698;SDS011;33708;49.466;11.176;2023-08-17T07:06:15;6.60;;;4.60;;
4698;SDS011;33708;49.466;11.176;2023-08-17T07:08:40;7.20;;;4.63;;
4698;SDS011;33708;49.466;11.176;2023-08-17T07:11:06;8.40;;;4.53;;
4698;SDS011;33708;49.466;11.176;2023-08-17T07:13:33;8.47;;;4.47;;
4698;SDS011;33708;49.466;11.176;2023-08-17T07:15:59;5.40;;;4.63;;
4698;SDS011;33708;49.466;11.176;2023-08-17T07:18:24;10.63;;;4.90;;
4698;SDS011;33708;49.466;11.176;2023-08-17T07:20:50;7.37;;;4.80;;
4698;SDS011;33708;49.466;11.176;2023-08-17T07:23:15;9.90;;;5.13;;
4698;SDS011;33708;49.466;11.176;2023-08-17T07:25:41;8.53;;;4.10;;
4698;SDS011;33708;49.466;11.176;2023-08-17T07:28:07;9.17;;;4.43;;
4698;SDS011;33708;49.466;11.176;2023-08-17T07:30:32;8.13;;;5.40;;
4698;SDS011;33708;49.466;11.176;2023-08-17T07:32:58;12.20;;;4.87;;
4698;SDS011;33708;49.466;11.176;2023-08-17T07:35:23;10.80;;;5.10;;
4698;SDS011;33708;49.466;11.176;2023-08-17T07:37:49;6.80;;;5.17;;
4698;SDS011;33708;49.466;11.176;2023-08-17T07:40:14;6.90;;;4.93;;
4698;SDS011;33708;49.466;11.176;2023-08-17T07:42:40;7.47;;;4.53;;
4698;SDS011;33708;49.466;11.176;2023-08-17T07:45:06;6.73;;;5.30;;
4698;SDS011;33708;49.466;11.176;2023-08-17T07:47:33;6.20;;;4.53;;
4698;SDS011;33708;49.466;11.176;2023-08-17T07:50:01;9.00;;;5.40;;
4698;SDS011;33708;49.466;11.176;2023-08-17T07:52:27;8.73;;;5.20;;
4698;SDS011;33708;49.466;11.176;2023-08-17T07:54:53;11.40;;;5.30;;
4698;SDS011;33708;49.466;11.176;2023-08-17T07:57:18;8.80;;;5.87;;
4698;SDS011;33708;49.466;11.176;2023-08-17T07:59:44;8.80;;;4.87;;
4698;SDS011;33708;49.466;11.176;2023-08-17T08:02:10;8.60;;;6.13;;
4698;SDS011;33708;49.466;11.176;2023-08-17T08:04:35;10.23;;;5.13;;
4698;SDS011;33708;49.466;11.176;2023-08-17T08:07:01;7.87;;;5.90;;
4698;SDS011;33708;49.466;11.176;2023-08-17T08:09:26;6.37;;;5.07;;
4698;SDS011;33708;49.466;11.176;2023-08-17T08:11:52;6.67;;;5.90;;
4698;SDS011;33708;49.466;11.176;2023-08-17T08:14:17;6.80;;;5.60;;
4698;SDS011;33708;49.466;11.176;2023-08-17T08:16:43;6.70;;;5.50;;
4698;SDS011;33708;49.466;11.176;2023-08-17T08:19:08;6.00;;;5.40;;
4698;SDS011;33708;49.466;11.176;2023-08-17T08:21:34;7.53;;;4.63;;
4698;SDS011;33708;49.466;11.176;2023-08-17T08:24:00;8.37;;;5.40;;
4698;SDS011;33708;49.466;11.176;2023-08-17T08:26:25;9.43;;;5.47;;
4698;SDS011;33708;49.466;11.176;2023-08-17T08:28:51;10.67;;;5.63;;
4698;SDS011;33708;49.466;11.176;2023-08-17T08:31:16;10.80;;;6.00;;
4698;SDS011;33708;49.466;11.176;2023-08-17T08:33:42;8.00;;;5.20;;
4698;SDS011;33708;49.466;11.176;2023-08-17T08:36:08;10.57;;;5.70;;
4698;SDS011;33708;49.466;11.176;2023-08-17T08:38:34;7.77;;;5.70;;
4698;SDS011;33708;49.466;11.176;2023-08-17T08:40:59;10.53;;;5.33;;
4698;SDS011;33708;49.466;11.176;2023-08-17T08:43:27;5.97;;;4.67;;
4698;SDS011;33708;49.466;11.176;2023-08-17T08:45:52;6.87;;;6.17;;
4698;SDS011;33708;49.466;11.176;2023-08-17T08:48:20;8.00;;;5.10;;
4698;SDS011;33708;49.466;11.176;2023-08-17T08:50:47;6.43;;;4.43;;
4698;SDS011;33708;49.466;11.176;2023-08-17T08:53:15;10.20;;;5.27;;
4698;SDS011;33708;49.466;11.176;2023-08-17T08:55:49;9.93;;;6.00;;
4698;SDS011;33708;49.466;11.176;2023-08-17T08:58:20;11.13;;;5.33;;
4698;SDS011;33708;49.466;11.176;2023-08-17T09:00:46;7.80;;;5.20;;
4698;SDS011;33708;49.466;11.176;2023-08-17T09:03:12;14.57;;;5.43;;
4698;SDS011;33708;49.466;11.176;2023-08-17T09:05:40;5.87;;;5.23;;
4698;SDS011;33708;49.466;11.176;2023-08-17T09:08:09;19.23;;;6.60;;
4698;SDS011;33708;49.466;11.176;2023-08-17T09:10:37;13.83;;;6.33;;
4698;SDS011;33708;49.466;11.176;2023-08-17T09:13:03;7.70;;;5.90;;
4698;SDS011;33708;49.466;11.176;2023-08-17T09:15:29;6.70;;;6.00;;
4698;SDS011;33708;49.466;11.176;2023-08-17T09:17:54;9.00;;;5.13;;
4698;SDS011;33708;49.466;11.176;2023-08-17T09:20:40;7.70;;;5.47;;
4698;SDS011;33708;49.466;11.176;2023-08-17T09:23:14;9.43;;;5.40;;
4698;SDS011;33708;49.466;11.176;2023-08-17T09:25:47;10.80;;;5.70;;
4698;SDS011;33708;49.466;11.176;2023-08-17T09:28:14;7.77;;;5.47;;
4698;SDS011;33708;49.466;11.176;2023-08-17T09:30:57;9.33;;;5.90;;
4698;SDS011;33708;49.466;11.176;2023-08-17T09:33:25;7.97;;;5.77;;
4698;SDS011;33708;49.466;11.176;2023-08-17T09:35:52;6.90;;;5.70;;
4698;SDS011;33708;49.466;11.176;2023-08-17T09:38:19;8.23;;;5.43;;
4698;SDS011;33708;49.466;11.176;2023-08-17T09:40:46;7.57;;;5.20;;
4698;SDS011;33708;49.466;11.176;2023-08-17T09:43:13;7.60;;;6.00;;
4698;SDS011;33708;49.466;11.176;2023-08-17T09:45:40;13.80;;;5.17;;
4698;SDS011;33708;49.466;11.176;2023-08-17T09:48:09;10.33;;;5.10;;
4698;SDS011;33708;49.466;11.176;2023-08-17T09:50:35;7.50;;;5.87;;
4698;SDS011;33708;49.466;11.176;2023-08-17T09:53:03;6.80;;;5.90;;
4698;SDS011;33708;49.466;11.176;2023-08-17T09:55:32;7.63;;;5.77;;
4698;SDS011;33708;49.466;11.176;2023-08-17T09:58:02;10.23;;;6.30;;
4698;SDS011;33708;49.466;11.176;2023-08-17T10:00:28;7.80;;;6.10;;
4698;SDS011;33708;49.466;11.176;2023-08-17T10:02:55;7.23;;;6.27;;
4698;SDS011;33708;49.466;11.176;2023-08-17T10:05:25;7.77;;;6.77;;
4698;SDS011;33708;49.466;11.176;2023-08-17T10:07:56;7.30;;;5.90;;
4698;SDS011;33708;49.466;11.176;2023-08-17T10:10:25;9.13;;;6.50;;
4698;SDS011;33708;49.466;11.176;2023-08-17T10:12:59;11.20;;;6.70;;
4698;SDS011;33708;49.466;11.176;2023-08-17T10:15:33;8.33;;;6.37;;
4698;SDS011;33708;49.466;11.176;2023-08-17T10:18:28;8.90;;;6.30;;
4698;SDS011;33708;49.466;11.176;2023-08-17T10:21:01;8.13;;;6.27;;
4698;SDS011;33708;49.466;11.176;2023-08-17T10:23:29;8.33;;;7.00;;
4698;SDS011;33708;49.466;11.176;2023-08-17T10:25:55;13.53;;;8.10;;
4698;SDS011;33708;49.466;11.176;2023-08-17T10:28:21;12.63;;;7.30;;
4698;SDS011;33708;49.466;11.176;2023-08-17T10:30:48;8.00;;;7.17;;
4698;SDS011;33708;49.466;11.176;2023-08-17T10:33:13;10.03;;;7.37;;
4698;SDS011;33708;49.466;11.176;2023-08-17T10:35:40;11.73;;;7.70;;
4698;SDS011;33708;49.466;11.176;2023-08-17T10:38:07;9.03;;;6.90;;
4698;SDS011;33708;49.466;11.176;2023-08-17T10:40:36;7.70;;;6.70;;
4698;SDS011;33708;49.466;11.176;2023-08-17T10:43:04;7.80;;;7.00;;
4698;SDS011;33708;49.466;11.176;2023-08-17T10:45:33;7.90;;;7.10;;
4698;SDS011;33708;49.466;11.176;2023-08-17T10:50:33;12.17;;;8.20;;
4698;SDS011;33708;49.466;11.176;2023-08-17T10:53:08;7.70;;;6.80;;
4698;SDS011;33708;49.466;11.176;2023-08-17T10:55:37;8.80;;;6.77;;
4698;SDS011;33708;49.466;11.176;2023-08-17T10:58:09;12.30;;;7.37;;
4698;SDS011;33708;49.466;11.176;2023-08-17T11:00:38;12.00;;;7.40;;
4698;SDS011;33708;49.466;11.176;2023-08-17T11:03:04;10.40;;;7.60;;
4698;SDS011;33708;49.466;11.176;2023-08-17T11:05:35;10.23;;;6.73;;
4698;SDS011;33708;49.466;11.176;2023-08-17T11:10:39;11.03;;;7.20;;
4698;SDS011;33708;49.466;11.176;2023-08-17T11:13:05;8.47;;;7.57;;
4698;SDS011;33708;49.466;11.176;2023-08-17T11:15:39;8.93;;;7.17;;
4698;SDS011;33708;49.466;11.176;2023-08-17T11:18:10;8.63;;;6.33;;
4698;SDS011;33708;49.466;11.176;2023-08-17T11:20:37;9.83;;;7.40;;
4698;SDS011;33708;49.466;11.176;2023-08-17T11:23:05;9.37;;;6.60;;
4698;SDS011;33708;49.466;11.176;2023-08-17T11:25:31;13.47;;;7.00;;
4698;SDS011;33708;49.466;11.176;2023-08-17T11:27:59;12.70;;;7.40;;
4698;SDS011;33708;49.466;11.176;2023-08-17T11:30:28;9.33;;;7.80;;
4698;SDS011;33708;49.466;11.176;2023-08-17T11:32:54;9.80;;;6.83;;
4698;SDS011;33708;49.466;11.176;2023-08-17T11:35:21;15.40;;;8.47;;
4698;SDS011;33708;49.466;11.176;2023-08-17T11:37:47;11.23;;;6.90;;
4698;SDS011;33708;49.466;11.176;2023-08-17T11:40:14;12.20;;;6.87;;
4698;SDS011;33708;49.466;11.176;2023-08-17T11:42:40;7.03;;;6.33;;
4698;SDS011;33708;49.466;11.176;2023-08-17T11:45:07;11.77;;;7.63;;
4698;SDS011;33708;49.466;11.176;2023-08-17T11:47:39;9.37;;;7.63;;
4698;SDS011;33708;49.466;11.176;2023-08-17T11:50:07;9.87;;;7.27;;
4698;SDS011;33708;49.466;11.176;2023-08-17T11:52:34;11.37;;;7.03;;
4698;SDS011;33708;49.466;11.176;2023-08-17T11:55:01;8.70;;;6.50;;
4698;SDS011;33708;49.466;11.176;2023-08-17T11:57:34;10.53;;;7.10;;
4698;SDS011;33708;49.466;11.176;2023-08-17T12:00:01;7.23;;;6.37;;
4698;SDS011;33708;49.466;11.176;2023-08-17T12:02:28;9.17;;;6.57;;
4698;SDS011;33708;49.466;11.176;2023-08-17T12:04:56;8.37;;;7.27;;
4698;SDS011;33708;49.466;11.176;2023-08-17T12:07:25;8.60;;;6.17;;
4698;SDS011;33708;49.466;11.176;2023-08-17T12:09:51;7.90;;;6.37;;
4698;SDS011;33708;49.466;11.176;2023-08-17T12:12:26;10.47;;;7.67;;
4698;SDS011;33708;49.466;11.176;2023-08-17T12:14:53;9.10;;;7.27;;
4698;SDS011;33708;49.466;11.176;2023-08-17T12:17:19;11.30;;;7.00;;
4698;SDS011;33708;49.466;11.176;2023-08-17T12:19:49;7.00;;;6.30;;
4698;SDS011;33708;49.466;11.176;2023-08-17T12:22:19;8.97;;;5.70;;
4698;SDS011;33708;49.466;11.176;2023-08-17T12:24:44;9.10;;;5.50;;
4698;SDS011;33708;49.466;11.176;2023-08-17T12:27:10;7.40;;;6.10;;
4698;SDS011;33708;49.466;11.176;2023-08-17T12:29:49;9.70;;;6.17;;
4698;SDS011;33708;49.466;11.176;2023-08-17T12:32:19;8.30;;;6.37;;
4698;SDS011;33708;49.466;11.176;2023-08-17T12:34:45;9.90;;;6.73;;
4698;SDS011;33708;49.466;11.176;2023-08-17T12:37:11;11.67;;;7.30;;
4698;SDS011;33708;49.466;11.176;2023-08-17T12:39:43;7.53;;;6.83;;
4698;SDS011;33708;49.466;11.176;2023-08-17T12:42:08;12.60;;;7.50;;
4698;SDS011;33708;49.466;11.176;2023-08-17T12:44:34;8.30;;;7.37;;
4698;SDS011;33708;49.466;11.176;2023-08-17T12:46:59;12.27;;;7.83;;
4698;SDS011;33708;49.466;11.176;2023-08-17T12:49:25;18.20;;;8.30;;
4698;SDS011;33708;49.466;11.176;2023-08-17T12:51:51;7.70;;;7.00;;
4698;SDS011;33708;49.466;11.176;2023-08-17T12:54:17;9.17;;;7.30;;
4698;SDS011;33708;49.466;11.176;2023-08-17T12:56:42;8.53;;;6.50;;
4698;SDS011;33708;49.466;11.176;2023-08-17T12:59:09;13.40;;;7.73;;
4698;SDS011;33708;49.466;11.176;2023-08-17T13:01:35;11.60;;;7.20;;
4698;SDS011;33708;49.466;11.176;2023-08-17T13:04:01;8.30;;;6.80;;
4698;SDS011;33708;49.466;11.176;2023-08-17T13:06:27;12.63;;;7.30;;
4698;SDS011;33708;49.466;11.176;2023-08-17T13:08:52;7.50;;;6.80;;
4698;SDS011;33708;49.466;11.176;2023-08-17T13:11:18;11.90;;;7.87;;
4698;SDS011;33708;49.466;11.176;2023-08-17T13:13:44;8.87;;;7.60;;
4698;SDS011;33708;49.466;11.176;2023-08-17T13:16:09;7.57;;;6.87;;
4698;SDS011;33708;49.466;11.176;2023-08-17T13:18:36;8.90;;;6.97;;
4698;SDS011;33708;49.466;11.176;2023-08-17T13:21:02;8.93;;;7.33;;
4698;SDS011;33708;49.466;11.176;2023-08-17T13:23:28;9.13;;;6.97;;
4698;SDS011;33708;49.466;11.176;2023-08-17T13:25:54;10.23;;;7.63;;
4698;SDS011;33708;49.466;11.176;2023-08-17T13:28:19;15.27;;;7.30;;
4698;SDS011;33708;49.466;11.176;2023-08-17T13:30:45;8.83;;;7.90;;
4698;SDS011;33708;49.466;11.176;2023-08-17T13:33:11;13.07;;;6.80;;
4698;SDS011;33708;49.466;11.176;2023-08-17T13:35:37;10.67;;;7.53;;
4698;SDS011;33708;49.466;11.176;2023-08-17T13:38:03;11.47;;;7.63;;
4698;SDS011;33708;49.466;11.176;2023-08-17T13:40:30;14.00;;;7.03;;
4698;SDS011;33708;49.466;11.176;2023-08-17T13:42:56;9.87;;;6.90;;
4698;SDS011;33708;49.466;11.176;2023-08-17T13:45:23;8.43;;;6.63;;
4698;SDS011;33708;49.466;11.176;2023-08-17T13:47:49;10.30;;;6.63;;
4698;SDS011;33708;49.466;11.176;2023-08-17T13:50:14;9.50;;;6.70;;
4698;SDS011;33708;49.466;11.176;2023-08-17T13:52:40;9.17;;;7.07;;
4698;SDS011;33708;49.466;11.176;2023-08-17T13:55:05;8.90;;;6.43;;
4698;SDS011;33708;49.466;11.176;2023-08-17T13:57:31;15.40;;;7.20;;
4698;SDS011;33708;49.466;11.176;2023-08-17T13:59:57;9.57;;;6.53;;
4698;SDS011;33708;49.466;11.176;2023-08-17T14:02:22;8.07;;;7.27;;
4698;SDS011;33708;49.466;11.176;2023-08-17T14:04:48;8.70;;;6.77;;
4698;SDS011;33708;49.466;11.176;2023-08-17T14:07:14;11.93;;;7.00;;
4698;SDS011;33708;49.466;11.176;2023-08-17T14:09:39;8.60;;;7.43;;
4698;SDS011;33708;49.466;11.176;2023-08-17T14:12:05;8.23;;;7.00;;
4698;SDS011;33708;49.466;11.176;2023-08-17T14:14:30;12.10;;;7.10;;
4698;SDS011;33708;49.466;11.176;2023-08-17T14:16:56;11.90;;;6.70;;
4698;SDS011;33708;49.466;11.176;2023-08-17T14:19:22;7.37;;;6.57;;
4698;SDS011;33708;49.466;11.176;2023-08-17T14:21:48;11.17;;;6.77;;
4698;SDS011;33708;49.466;11.176;2023-08-17T14:24:14;16.50;;;7.70;;
4698;SDS011;33708;49.466;11.176;2023-08-17T14:26:39;11.47;;;7.23;;
4698;SDS011;33708;49.466;11.176;2023-08-17T14:29:05;11.97;;;6.70;;
4698;SDS011;33708;49.466;11.176;2023-08-17T14:31:30;12.80;;;7.00;;
4698;SDS011;33708;49.466;11.176;2023-08-17T14:33:56;9.50;;;7.43;;
4698;SDS011;33708;49.466;11.176;2023-08-17T14:36:22;12.10;;;6.83;;
4698;SDS011;33708;49.466;11.176;2023-08-17T14:38:47;10.23;;;7.40;;
4698;SDS011;33708;49.466;11.176;2023-08-17T14:41:13;13.00;;;8.07;;
4698;SDS011;33708;49.466;11.176;2023-08-17T14:43:38;10.37;;;6.93;;
4698;SDS011;33708;49.466;11.176;2023-08-17T14:46:04;7.83;;;6.70;;
4698;SDS011;33708;49.466;11.176;2023-08-17T14:48:30;7.70;;;6.70;;